Terminal Aerodrome Forecast
Issued by NWS Shreveport, LA

Current Version | Previous Version | Text Only | Print | Product List | Glossary On
Versions: 1 2 3 4 5 6 7 8 9 10 11 12 13
000
FTUS44 KSHV 260540
TAFTXK
TAF
KTXK 260540Z 2606/2706 31009G15KT P6SM FEW017 OVC030
      TEMPO 2608/2612 OVC017
     FM261200 30008KT P6SM OVC030
     FM261800 32007KT P6SM BKN040
     FM270000 34004KT P6SM BKN045=

USA.gov is the U.S. government's official web portal to all federal, state and local government web resources and services.